Time,TemperatureF,DewpointF,PressureIn,WindDirection,WindDirectionDegrees,WindSpeedMPH,WindSpeedGustMPH,Humidity,HourlyPrecipIn,Conditions,Clouds,dailyrainin,SoftwareType,DateUTC
2013-01-30 00:01:00,50.5,50.5,29.03,SSW,209,1.7,3.6,100,0.00,,,0.00,WSDL version 420,2013-01-30 05:01:00,
2013-01-30 00:03:00,50.6,50.6,29.03,SW,225,1.9,6.5,100,0.00,,,0.00,WSDL version 420,2013-01-30 05:03:00,
2013-01-30 00:07:00,50.7,50.7,-100.00,SW,236,2.0,6.5,100,0.00,,,0.00,WSDL version 420,2013-01-30 05:07:00,
2013-01-30 00:13:00,50.7,50.7,29.03,SW,215,2.5,6.5,100,0.00,,,0.00,WSDL version 420,2013-01-30 05:13:00,
2013-01-30 00:17:00,50.7,50.7,29.00,SW,215,1.0,5.4,100,0.00,,,0.00,WSDL version 420,2013-01-30 05:17:00,
2013-01-30 00:22:00,50.5,50.5,29.00,SW,222,1.2,3.4,99,0.00,,,0.00,WSDL version 420,2013-01-30 05:22:00,
2013-01-30 00:29:00,50.5,50.2,29.00,SW,222,1.2,3.1,99,0.00,,,0.00,WSDL version 420,2013-01-30 05:29:00,
2013-01-30 00:35:00,50.5,50.2,29.00,SW,216,0.0,3.6,98,0.00,,,0.00,WSDL version 420,2013-01-30 05:35:00,
2013-01-30 00:41:00,50.5,49.9,29.00,SSW,203,0.7,3.6,98,0.00,,,0.00,WSDL version 420,2013-01-30 05:41:00,
2013-01-30 00:49:00,50.5,49.7,28.97,SSW,203,0.0,3.4,97,-99.99,,,-99.99,WSDL version 420,2013-01-30 05:49:00,
2013-01-30 00:56:00,50.2,49.3,28.97,SW,214,2.0,3.1,97,-99.99,,,-99.99,WSDL version 420,2013-01-30 05:56:00,
2013-01-30 01:05:00,50.2,49.3,28.94,SW,229,2.3,4.0,97,0.00,,,0.00,WSDL version 420,2013-01-30 06:05:00,
2013-01-30 01:11:00,50.4,49.4,28.94,SW,225,2.5,4.9,97,-99.99,,,-99.99,WSDL version 420,2013-01-30 06:11:00,
2013-01-30 01:16:00,50.7,49.8,28.97,SW,236,2.0,4.9,97,-99.99,,,-99.99,WSDL version 420,2013-01-30 06:16:00,
2013-01-30 01:22:00,50.7,49.5,28.97,SW,236,2.3,3.6,96,0.00,,,0.00,WSDL version 420,2013-01-30 06:22:00,
2013-01-30 01:28:00,50.5,49.2,28.94,WSW,241,2.2,3.8,94,0.00,,,0.00,WSDL version 420,2013-01-30 06:28:00,
2013-01-30 01:35:00,50.4,48.8,28.94,WSW,241,3.0,5.8,94,0.00,,,0.00,WSDL version 420,2013-01-30 06:35:00,
2013-01-30 01:41:00,50.4,48.6,28.94,SW,228,2.4,5.8,93,0.00,,,0.00,WSDL version 420,2013-01-30 06:41:00,
2013-01-30 01:47:00,50.2,48.4,28.91,SW,230,2.3,5.4,93,0.00,,,0.00,WSDL version 420,2013-01-30 06:47:00,
2013-01-30 01:53:00,50.2,48.3,28.91,West,259,3.0,5.8,93,0.00,,,0.00,WSDL version 420,2013-01-30 06:53:00,
2013-01-30 01:59:00,50.2,48.3,28.91,WSW,248,2.5,5.8,93,0.00,,,0.00,WSDL version 420,2013-01-30 06:59:00,
2013-01-30 02:05:00,50.2,48.3,28.91,SW,228,1.9,5.4,93,0.00,,,0.00,WSDL version 420,2013-01-30 07:05:00,
2013-01-30 02:11:00,50.2,48.4,28.91,SW,236,2.6,5.4,93,-99.99,,,-99.99,WSDL version 420,2013-01-30 07:11:00,
2013-01-30 02:17:00,50.5,48.7,28.91,SW,231,2.5,4.3,93,0.00,,,0.00,WSDL version 420,2013-01-30 07:17:00,
2013-01-30 02:23:00,50.5,48.7,28.91,SW,233,1.5,4.3,93,0.00,,,0.00,WSDL version 420,2013-01-30 07:23:00,
2013-01-30 02:29:00,50.6,48.7,28.91,WSW,241,3.1,6.0,93,0.00,,,0.00,WSDL version 420,2013-01-30 07:29:00,
2013-01-30 02:35:00,50.9,48.7,-100.00,SSW,210,2.8,7.2,92,0.00,,,0.00,WSDL version 420,2013-01-30 07:35:00,
2013-01-30 02:41:00,50.8,48.5,28.91,SW,214,2.6,5.4,91,0.00,,,0.00,WSDL version 420,2013-01-30 07:41:00,
2013-01-30 02:47:00,50.7,48.2,28.91,SW,231,3.3,5.8,90,0.00,,,0.00,WSDL version 420,2013-01-30 07:47:00,
2013-01-30 02:53:00,50.8,47.9,28.91,SW,233,2.9,5.8,90,0.00,,,0.00,WSDL version 420,2013-01-30 07:53:00,
2013-01-30 02:59:00,50.9,48.1,28.88,WSW,248,2.6,5.4,90,-99.99,,,-99.99,WSDL version 420,2013-01-30 07:59:00,
2013-01-30 03:05:00,50.9,48.1,28.88,WSW,240,3.4,4.9,90,0.00,,,0.00,WSDL version 420,2013-01-30 08:05:00,
2013-01-30 03:11:00,51.1,48.0,28.88,WSW,244,2.7,4.7,89,-99.99,,,-99.99,WSDL version 420,2013-01-30 08:11:00,
2013-01-30 03:17:00,51.4,48.2,28.88,SW,218,3.0,7.4,89,0.00,,,0.00,WSDL version 420,2013-01-30 08:17:00,
2013-01-30 03:24:00,51.4,47.9,28.88,SW,225,2.5,5.8,88,0.00,,,0.00,WSDL version 420,2013-01-30 08:24:00,
2013-01-30 03:30:00,51.6,47.8,28.88,SW,222,3.5,6.3,87,0.00,,,0.00,WSDL version 420,2013-01-30 08:30:00,
2013-01-30 03:36:00,51.6,47.6,28.88,WSW,243,2.9,6.9,86,0.00,,,0.00,WSDL version 420,2013-01-30 08:36:00,
2013-01-30 03:42:00,51.6,47.4,28.88,WSW,258,3.5,6.9,86,0.00,,,0.00,WSDL version 420,2013-01-30 08:42:00,
2013-01-30 03:47:00,51.6,47.4,28.85,SW,219,3.5,6.3,86,0.00,,,0.00,WSDL version 420,2013-01-30 08:47:00,
2013-01-30 03:53:00,51.6,47.4,28.85,SW,231,3.9,6.5,86,0.00,,,0.00,WSDL version 420,2013-01-30 08:53:00,
2013-01-30 03:59:00,51.7,47.3,28.85,WSW,245,4.1,6.3,84,0.00,,,0.00,WSDL version 420,2013-01-30 08:59:00,
2013-01-30 04:04:00,51.8,47.1,28.85,SW,233,3.6,7.2,83,-99.99,,,-99.99,WSDL version 420,2013-01-30 09:04:00,
2013-01-30 04:10:00,51.8,46.9,28.85,SW,214,3.8,6.3,83,0.00,,,0.00,WSDL version 420,2013-01-30 09:10:00,
2013-01-30 04:19:00,51.8,46.6,28.85,West,260,3.5,7.2,82,0.00,,,0.00,WSDL version 420,2013-01-30 09:19:00,
2013-01-30 04:25:00,51.8,46.6,28.85,WSW,244,3.8,7.4,82,0.00,,,0.00,WSDL version 420,2013-01-30 09:25:00,
2013-01-30 04:31:00,51.8,46.6,28.82,SW,219,3.6,8.1,82,0.00,,,0.00,WSDL version 420,2013-01-30 09:31:00,
2013-01-30 04:37:00,51.7,46.4,28.82,SW,219,3.3,8.1,82,0.00,,,0.00,WSDL version 420,2013-01-30 09:37:00,
2013-01-30 04:43:00,51.6,46.4,28.82,WNW,284,2.8,6.5,82,0.00,,,0.00,WSDL version 420,2013-01-30 09:43:00,
2013-01-30 04:49:00,51.5,46.2,28.85,West,259,3.4,6.0,82,0.00,,,0.00,WSDL version 420,2013-01-30 09:49:00,
2013-01-30 04:57:00,51.4,45.8,28.85,SW,225,3.2,7.6,81,0.00,,,0.00,WSDL version 420,2013-01-30 09:57:00,
2013-01-30 05:03:00,51.4,45.9,28.85,SW,225,4.0,7.2,82,0.00,,,0.00,WSDL version 420,2013-01-30 10:03:00,
2013-01-30 05:10:00,51.4,46.0,28.85,SW,225,3.4,7.2,81,0.00,,,0.00,WSDL version 420,2013-01-30 10:10:00,
2013-01-30 05:16:00,51.3,45.7,28.82,SW,233,3.2,5.8,81,0.00,,,0.00,WSDL version 420,2013-01-30 10:16:00,
2013-01-30 05:21:00,51.3,45.7,28.82,WSW,244,3.8,5.4,81,0.00,,,0.00,WSDL version 420,2013-01-30 10:21:00,
2013-01-30 05:27:00,51.4,46.2,28.82,SW,231,3.2,6.5,82,-99.99,,,-99.99,WSDL version 420,2013-01-30 10:27:00,
2013-01-30 05:33:00,51.6,46.1,28.79,SW,235,3.4,6.3,81,0.00,,,0.00,WSDL version 420,2013-01-30 10:33:00,
2013-01-30 05:39:00,51.6,46.0,28.79,WSW,243,3.2,6.3,81,0.00,,,0.00,WSDL version 420,2013-01-30 10:39:00,
2013-01-30 05:45:00,51.6,45.7,28.79,SW,221,3.1,6.3,80,0.00,,,0.00,WSDL version 420,2013-01-30 10:45:00,
2013-01-30 05:51:00,51.4,45.3,28.79,SW,236,2.5,4.9,79,-99.99,,,-99.99,WSDL version 420,2013-01-30 10:51:00,
2013-01-30 05:56:00,51.3,45.1,28.79,WSW,241,2.6,6.3,80,0.00,,,0.00,WSDL version 420,2013-01-30 10:56:00,
2013-01-30 06:02:00,51.2,45.2,28.79,SSW,207,2.6,6.3,80,0.00,,,0.00,WSDL version 420,2013-01-30 11:02:00,
2013-01-30 06:08:00,51.0,45.0,28.79,SW,214,2.2,5.6,80,0.00,,,0.00,WSDL version 420,2013-01-30 11:08:00,
2013-01-30 06:14:00,51.1,45.1,28.79,SW,221,3.0,3.8,80,0.00,,,0.00,WSDL version 420,2013-01-30 11:14:00,
2013-01-30 06:20:00,51.1,45.1,28.79,SW,217,2.4,4.3,80,0.00,,,0.00,WSDL version 420,2013-01-30 11:20:00,
2013-01-30 06:26:00,51.1,44.8,28.79,SW,228,2.8,4.3,79,0.00,,,0.00,WSDL version 420,2013-01-30 11:26:00,
2013-01-30 06:31:00,51.1,45.1,28.76,WSW,239,2.2,3.8,80,0.00,,,0.00,WSDL version 420,2013-01-30 11:31:00,
2013-01-30 06:37:00,50.9,45.0,28.76,WSW,244,2.2,3.8,80,-99.99,,,-99.99,WSDL version 420,2013-01-30 11:37:00,
2013-01-30 06:43:00,50.9,45.0,28.76,SSW,213,2.0,3.8,80,-99.99,,,-99.99,WSDL version 420,2013-01-30 11:43:00,
2013-01-30 06:48:00,50.7,44.8,28.76,WSW,240,2.5,5.8,80,0.00,,,0.00,WSDL version 420,2013-01-30 11:48:00,
2013-01-30 06:54:00,50.7,44.8,28.76,WSW,239,2.7,5.8,80,0.00,,,0.00,WSDL version 420,2013-01-30 11:54:00,
2013-01-30 07:01:00,50.7,44.8,28.76,WSW,244,2.7,4.7,80,0.00,,,0.00,WSDL version 420,2013-01-30 12:01:00,
2013-01-30 07:07:00,50.7,44.8,28.76,SW,234,1.4,4.7,80,0.00,,,0.00,WSDL version 420,2013-01-30 12:07:00,
2013-01-30 07:13:00,50.5,44.6,28.76,WSW,239,2.5,6.3,80,0.00,,,0.00,WSDL version 420,2013-01-30 12:13:00,
2013-01-30 07:19:00,50.7,44.8,28.76,SW,225,2.7,6.3,80,0.00,,,0.00,WSDL version 420,2013-01-30 12:19:00,
2013-01-30 07:25:00,51.1,44.8,28.76,WSW,244,3.3,5.6,79,0.00,,,0.00,WSDL version 420,2013-01-30 12:25:00,
2013-01-30 07:30:00,51.4,45.2,28.73,SW,233,3.0,5.6,79,-99.99,,,-99.99,WSDL version 420,2013-01-30 12:30:00,
2013-01-30 07:36:00,51.6,45.0,28.73,SW,231,3.5,5.4,78,0.00,,,0.00,WSDL version 420,2013-01-30 12:36:00,
2013-01-30 07:42:00,51.8,44.8,28.73,SW,235,2.6,5.8,77,0.00,,,0.00,WSDL version 420,2013-01-30 12:42:00,
2013-01-30 07:49:00,51.9,44.7,28.73,SSW,210,3.5,5.4,76,0.00,,,0.00,WSDL version 420,2013-01-30 12:49:00,
2013-01-30 07:55:00,51.8,44.5,28.73,SW,225,3.2,5.4,76,0.00,,,0.00,WSDL version 420,2013-01-30 12:55:00,
2013-01-30 08:01:00,52.0,44.5,28.73,South,191,2.9,6.0,76,-99.99,,,-99.99,WSDL version 420,2013-01-30 13:01:00,
2013-01-30 08:07:00,52.1,44.4,28.73,WSW,242,3.5,5.6,75,0.00,,,0.00,WSDL version 420,2013-01-30 13:07:00,
2013-01-30 08:13:00,52.1,44.8,28.73,SW,214,2.5,4.3,76,0.00,,,0.00,WSDL version 420,2013-01-30 13:13:00,
2013-01-30 08:22:00,52.4,45.3,28.70,SSW,206,3.2,6.0,77,0.00,,,0.00,WSDL version 420,2013-01-30 13:22:00,
2013-01-30 08:29:00,52.7,45.4,-100.00,SW,218,2.8,4.0,76,0.00,,,0.00,WSDL version 420,2013-01-30 13:29:00,
2013-01-30 08:35:00,53.0,45.6,28.73,SW,233,3.0,5.4,76,-99.99,,,-99.99,WSDL version 420,2013-01-30 13:35:00,
2013-01-30 08:41:00,53.2,45.8,28.73,SW,215,2.8,6.0,76,0.00,,,0.00,WSDL version 420,2013-01-30 13:41:00,
2013-01-30 08:47:00,53.5,46.0,28.73,SW,218,3.6,6.0,75,0.00,,,0.00,WSDL version 420,2013-01-30 13:47:00,
2013-01-30 08:53:00,53.6,45.9,-100.00,SSW,203,3.0,5.8,75,0.00,,,0.00,WSDL version 420,2013-01-30 13:53:00,
2013-01-30 08:59:00,53.6,45.9,-100.00,SSW,208,2.4,4.0,75,-99.99,,,-99.99,WSDL version 420,2013-01-30 13:59:00,
2013-01-30 09:05:00,53.8,46.1,28.70,SW,234,2.3,4.0,75,0.00,,,0.00,WSDL version 420,2013-01-30 14:05:00,
2013-01-30 09:10:00,53.9,46.1,28.70,South,185,3.4,4.3,75,0.00,,,0.00,WSDL version 420,2013-01-30 14:10:00,
2013-01-30 09:16:00,54.0,46.3,-100.00,SW,236,3.1,4.3,75,0.00,,,0.00,WSDL version 420,2013-01-30 14:16:00,
2013-01-30 09:24:00,54.2,46.1,28.67,SW,214,2.4,5.6,74,-99.99,,,-99.99,WSDL version 420,2013-01-30 14:24:00,
2013-01-30 09:30:00,54.3,46.2,-100.00,SSW,210,3.1,5.6,74,0.00,,,0.00,WSDL version 420,2013-01-30 14:30:00,
2013-01-30 09:35:00,54.5,46.4,28.67,SW,236,3.2,5.8,74,0.00,,,0.00,WSDL version 420,2013-01-30 14:35:00,
2013-01-30 09:41:00,54.8,46.9,-100.00,SW,236,3.7,6.0,75,0.00,,,0.00,WSDL version 420,2013-01-30 14:41:00,
2013-01-30 09:47:00,55.3,47.1,28.67,SSW,208,3.3,6.0,74,0.00,,,0.00,WSDL version 420,2013-01-30 14:47:00,
2013-01-30 09:55:00,55.8,47.6,28.67,West,270,2.9,6.3,74,-99.99,,,-99.99,WSDL version 420,2013-01-30 14:55:00,
2013-01-30 10:02:00,55.9,47.4,28.67,WSW,243,4.3,6.3,73,0.00,,,0.00,WSDL version 420,2013-01-30 15:02:00,
2013-01-30 10:08:00,56.1,47.6,28.67,WSW,243,3.1,5.4,73,0.00,,,0.00,WSDL version 420,2013-01-30 15:08:00,
2013-01-30 10:16:00,56.3,47.6,28.64,WSW,248,4.0,6.5,72,0.00,,,0.00,WSDL version 420,2013-01-30 15:16:00,
2013-01-30 10:25:00,56.8,48.0,28.64,WSW,240,3.9,7.8,72,-99.99,,,-99.99,WSDL version 420,2013-01-30 15:25:00,
2013-01-30 10:31:00,56.8,47.9,28.64,SSW,210,4.0,7.8,72,0.00,,,0.00,WSDL version 420,2013-01-30 15:31:00,
2013-01-30 10:46:00,57.2,47.9,-100.00,WSW,239,4.4,6.3,71,0.00,,,0.00,WSDL version 420,2013-01-30 15:46:00,
2013-01-30 10:52:00,57.2,47.9,28.61,SW,229,4.5,6.3,71,0.00,,,0.00,WSDL version 420,2013-01-30 15:52:00,
2013-01-30 10:59:00,57.6,48.2,28.61,SSW,195,4.5,8.1,71,0.00,,,0.00,WSDL version 420,2013-01-30 15:59:00,
2013-01-30 11:05:00,57.7,48.4,28.64,WSW,248,4.2,8.7,71,0.00,,,0.00,WSDL version 420,2013-01-30 16:05:00,
2013-01-30 11:10:00,58.3,48.9,28.64,SW,221,4.0,8.7,71,-99.99,,,-99.99,WSDL version 420,2013-01-30 16:10:00,
2013-01-30 11:15:00,58.8,48.9,28.64,WSW,238,4.2,8.5,69,0.00,,,0.00,WSDL version 420,2013-01-30 16:15:00,
2013-01-30 11:22:00,59.6,49.1,28.64,WSW,248,5.0,12.1,67,-99.99,,,-99.99,WSDL version 420,2013-01-30 16:22:00,
2013-01-30 11:28:00,60.1,48.8,28.64,SW,214,5.1,12.1,65,0.00,,,0.00,WSDL version 420,2013-01-30 16:28:00,
2013-01-30 11:34:00,60.1,48.3,28.61,WSW,241,5.5,8.5,65,0.00,,,0.00,WSDL version 420,2013-01-30 16:34:00,
2013-01-30 11:40:00,60.1,48.3,28.61,WSW,248,5.2,8.5,65,0.00,,,0.00,WSDL version 420,2013-01-30 16:40:00,
2013-01-30 11:47:00,59.7,48.0,-100.00,WSW,248,4.1,7.4,65,0.00,,,0.00,WSDL version 420,2013-01-30 16:47:00,
2013-01-30 11:55:00,59.5,48.1,28.61,WSW,244,4.0,7.8,66,-99.99,,,-99.99,WSDL version 420,2013-01-30 16:55:00,
2013-01-30 12:04:00,59.1,48.7,28.64,WSW,244,5.0,8.7,69,0.00,,,0.00,WSDL version 420,2013-01-30 17:04:00,
2013-01-30 12:11:00,58.5,49.5,28.64,WSW,242,5.0,10.5,72,0.00,,,0.00,WSDL version 420,2013-01-30 17:11:00,
2013-01-30 12:19:00,57.7,50.4,28.61,SW,235,3.0,10.5,77,0.00,,,0.00,WSDL version 420,2013-01-30 17:19:00,
2013-01-30 12:28:00,58.5,52.0,28.61,SW,221,4.1,6.5,79,0.00,,,0.00,WSDL version 420,2013-01-30 17:28:00,
2013-01-30 12:34:00,58.5,51.6,28.61,WSW,243,5.0,6.9,76,0.00,,,0.00,WSDL version 420,2013-01-30 17:34:00,
2013-01-30 12:44:00,59.1,50.6,28.64,WSW,239,4.9,10.1,74,0.00,,,0.00,WSDL version 420,2013-01-30 17:44:00,
2013-01-30 12:50:00,59.0,50.6,28.64,WSW,244,2.7,10.1,74,0.00,,,0.00,WSDL version 420,2013-01-30 17:50:00,
2013-01-30 12:56:00,58.8,50.6,28.64,SSW,212,2.7,4.0,74,0.00,,,0.00,WSDL version 420,2013-01-30 17:56:00,
2013-01-30 13:02:00,58.6,50.4,28.64,WSW,243,2.9,3.8,74,0.00,,,0.00,WSDL version 420,2013-01-30 18:02:00,
2013-01-30 13:14:00,59.0,50.7,28.61,WSW,243,2.4,4.0,74,0.00,,,0.00,WSDL version 420,2013-01-30 18:14:00,
2013-01-30 13:20:00,59.2,50.8,28.61,WSW,248,3.2,6.3,73,0.00,,,0.00,WSDL version 420,2013-01-30 18:20:00,
2013-01-30 13:26:00,60.2,51.5,28.61,SSW,212,4.1,6.3,72,0.00,,,0.00,WSDL version 420,2013-01-30 18:26:00,
2013-01-30 13:33:00,61.5,51.3,28.59,SE,131,4.1,6.5,69,0.00,,,0.00,WSDL version 420,2013-01-30 18:33:00,
2013-01-30 13:40:00,61.5,50.9,-100.00,WSW,239,4.1,6.5,68,0.00,,,0.00,WSDL version 420,2013-01-30 18:40:00,
2013-01-30 13:46:00,62.9,52.1,28.59,WSW,240,3.1,6.0,66,0.00,,,0.00,WSDL version 420,2013-01-30 18:46:00,
2013-01-30 13:52:00,63.4,50.9,28.59,SW,236,3.7,6.0,63,0.00,,,0.00,WSDL version 420,2013-01-30 18:52:00,
2013-01-30 13:58:00,61.9,49.4,28.59,WSW,243,3.2,6.0,64,0.00,,,0.00,WSDL version 420,2013-01-30 18:58:00,
2013-01-30 14:05:00,61.3,50.1,28.61,SW,230,4.0,6.3,67,0.00,,,0.00,WSDL version 420,2013-01-30 19:05:00,
2013-01-30 14:11:00,61.0,50.4,28.61,SW,233,3.8,5.8,68,-99.99,,,-99.99,WSDL version 420,2013-01-30 19:11:00,
2013-01-30 14:17:00,60.9,50.2,28.59,SW,225,3.5,6.5,68,0.00,,,0.00,WSDL version 420,2013-01-30 19:17:00,
2013-01-30 14:23:00,60.8,50.2,28.59,SW,231,4.2,6.5,68,0.00,,,0.00,WSDL version 420,2013-01-30 19:23:00,
2013-01-30 14:30:00,60.4,49.8,28.59,West,259,3.5,6.3,68,0.00,,,0.00,WSDL version 420,2013-01-30 19:30:00,
2013-01-30 14:36:00,60.4,50.1,28.59,WSW,250,3.7,6.3,69,0.00,,,0.00,WSDL version 420,2013-01-30 19:36:00,
2013-01-30 14:42:00,60.6,50.4,28.59,SW,218,2.8,7.2,69,0.00,,,0.00,WSDL version 420,2013-01-30 19:42:00,
2013-01-30 14:48:00,60.4,50.2,-100.00,WSW,244,2.6,4.0,69,0.00,,,0.00,WSDL version 420,2013-01-30 19:48:00,
2013-01-30 14:54:00,60.4,49.8,28.59,SW,221,3.0,4.9,68,0.00,,,0.00,WSDL version 420,2013-01-30 19:54:00,
2013-01-30 14:59:00,60.3,49.8,28.61,SW,218,2.9,4.9,69,0.00,,,0.00,WSDL version 420,2013-01-30 19:59:00,
2013-01-30 15:06:00,60.2,50.0,28.61,SW,225,3.0,5.6,69,0.00,,,0.00,WSDL version 420,2013-01-30 20:06:00,
2013-01-30 15:11:00,60.0,49.8,28.61,WSW,239,2.5,5.6,69,0.00,,,0.00,WSDL version 420,2013-01-30 20:11:00,
2013-01-30 15:17:00,59.7,49.9,28.61,SW,228,2.5,4.3,70,-99.99,,,-99.99,WSDL version 420,2013-01-30 20:17:00,
2013-01-30 15:24:00,59.3,49.5,28.61,SSW,203,3.1,4.9,70,-99.99,,,-99.99,WSDL version 420,2013-01-30 20:24:00,
2013-01-30 15:30:00,58.6,49.2,28.61,SW,221,3.4,6.0,72,0.00,,,0.00,WSDL version 420,2013-01-30 20:30:00,
2013-01-30 15:35:00,58.0,49.2,28.61,SW,236,2.6,6.0,73,0.00,,,0.00,WSDL version 420,2013-01-30 20:35:00,
2013-01-30 15:46:00,57.2,49.7,28.61,SW,216,3.2,5.4,76,0.00,,,0.00,WSDL version 420,2013-01-30 20:46:00,
2013-01-30 15:51:00,57.2,49.9,28.61,SW,225,2.9,4.9,77,0.00,,,0.00,WSDL version 420,2013-01-30 20:51:00,
2013-01-30 15:56:00,57.2,50.4,28.61,West,259,2.7,5.8,78,0.00,,,0.00,WSDL version 420,2013-01-30 20:56:00,
2013-01-30 16:03:00,57.3,50.6,28.56,WSW,248,3.2,5.6,79,0.00,,,0.00,WSDL version 420,2013-01-30 21:03:00,
2013-01-30 16:08:00,57.6,50.8,28.56,WSW,248,4.3,7.2,78,0.00,,,0.00,WSDL version 420,2013-01-30 21:08:00,
2013-01-30 16:14:00,57.7,50.5,-100.00,NNW,338,2.8,7.2,76,0.00,,,0.00,WSDL version 420,2013-01-30 21:14:00,
2013-01-30 16:20:00,57.9,50.3,28.56,SW,225,4.3,7.4,75,-99.99,,,-99.99,WSDL version 420,2013-01-30 21:20:00,
2013-01-30 16:25:00,58.1,50.1,28.56,WSW,248,3.0,7.4,75,-99.99,,,-99.99,WSDL version 420,2013-01-30 21:25:00,
2013-01-30 16:31:00,58.1,49.9,28.53,WSW,255,3.6,6.5,74,0.00,,,0.00,WSDL version 420,2013-01-30 21:31:00,
2013-01-30 16:36:00,58.1,49.9,28.53,SW,216,3.4,5.8,74,0.00,,,0.00,WSDL version 420,2013-01-30 21:36:00,
2013-01-30 16:43:00,57.9,49.7,-100.00,West,263,3.9,7.4,74,0.00,,,0.00,WSDL version 420,2013-01-30 21:43:00,
2013-01-30 16:49:00,57.9,49.7,28.56,WSW,240,4.5,7.4,74,0.00,,,0.00,WSDL version 420,2013-01-30 21:49:00,
2013-01-30 16:57:00,58.1,49.9,-100.00,SSW,197,3.8,6.5,74,0.00,,,0.00,WSDL version 420,2013-01-30 21:57:00,
2013-01-30 17:03:00,58.0,49.6,28.53,WSW,251,4.3,6.3,73,0.00,,,0.00,WSDL version 420,2013-01-30 22:03:00,
2013-01-30 17:12:00,57.4,48.8,28.53,WSW,245,4.8,6.3,73,0.00,,,0.00,WSDL version 420,2013-01-30 22:12:00,
2013-01-30 17:18:00,56.9,48.7,28.53,SW,217,3.4,6.3,74,0.00,,,0.00,WSDL version 420,2013-01-30 22:18:00,
2013-01-30 17:24:00,56.8,48.7,28.53,SW,221,3.1,6.0,75,0.00,,,0.00,WSDL version 420,2013-01-30 22:24:00,
2013-01-30 17:29:00,56.8,49.3,28.53,WSW,244,4.7,8.5,77,0.00,,,0.00,WSDL version 420,2013-01-30 22:29:00,
2013-01-30 17:35:00,57.2,49.8,28.53,SW,229,4.0,8.5,76,0.00,,,0.00,WSDL version 420,2013-01-30 22:35:00,
2013-01-30 17:41:00,57.2,49.2,28.53,WSW,248,4.2,6.0,74,0.00,,,0.00,WSDL version 420,2013-01-30 22:41:00,
2013-01-30 17:47:00,57.2,49.0,28.56,SSW,203,3.1,5.8,74,0.00,,,0.00,WSDL version 420,2013-01-30 22:47:00,
2013-01-30 17:53:00,57.2,49.0,28.56,SSW,197,3.8,6.5,74,0.00,,,0.00,WSDL version 420,2013-01-30 22:53:00,
2013-01-30 17:59:00,57.3,48.7,28.56,SW,233,3.9,6.5,73,0.00,,,0.00,WSDL version 420,2013-01-30 22:59:00,
2013-01-30 18:05:00,57.4,48.8,28.56,SSW,194,4.6,6.3,73,0.00,,,0.00,WSDL version 420,2013-01-30 23:05:00,
2013-01-30 18:10:00,57.4,48.4,28.56,SW,229,4.2,7.4,72,0.00,,,0.00,WSDL version 420,2013-01-30 23:10:00,
2013-01-30 18:17:00,57.4,48.4,28.53,SW,228,3.5,7.4,72,0.00,,,0.00,WSDL version 420,2013-01-30 23:17:00,
2013-01-30 18:23:00,57.4,48.4,28.53,SW,228,4.1,9.6,72,-99.99,,,-99.99,WSDL version 420,2013-01-30 23:23:00,
2013-01-30 18:29:00,57.4,48.4,28.53,SW,221,4.2,9.6,72,0.00,,,0.00,WSDL version 420,2013-01-30 23:29:00,
2013-01-30 18:35:00,57.3,48.3,-100.00,WSW,242,3.9,7.2,72,0.00,,,0.00,WSDL version 420,2013-01-30 23:35:00,
2013-01-30 18:40:00,57.0,48.1,28.53,SW,230,3.9,6.5,72,0.00,,,0.00,WSDL version 420,2013-01-30 23:40:00,
2013-01-30 18:47:00,56.8,48.7,28.53,SSW,211,4.4,7.2,74,0.00,,,0.00,WSDL version 420,2013-01-30 23:47:00,
2013-01-30 18:53:00,56.8,48.6,28.53,SW,235,4.5,6.5,74,0.00,,,0.00,WSDL version 420,2013-01-30 23:53:00,
2013-01-30 19:00:00,56.7,48.1,28.53,SW,228,4.5,8.5,73,0.00,,,0.00,WSDL version 420,2013-01-31 00:00:00,
2013-01-30 19:08:00,56.8,48.2,28.53,WSW,255,4.2,8.5,73,0.00,,,0.00,WSDL version 420,2013-01-31 00:08:00,
2013-01-30 19:14:00,56.8,47.9,28.50,SSW,210,4.3,7.8,72,0.00,,,0.00,WSDL version 420,2013-01-31 00:14:00,
2013-01-30 19:20:00,56.6,47.8,28.50,SSW,212,4.0,7.4,73,0.00,,,0.00,WSDL version 420,2013-01-31 00:20:00,
2013-01-30 19:25:00,56.6,47.8,28.50,SSW,208,3.7,8.7,72,0.00,,,0.00,WSDL version 420,2013-01-31 00:25:00,
2013-01-30 19:34:00,56.8,47.5,28.47,SW,222,5.6,8.7,71,-99.99,,,-99.99,WSDL version 420,2013-01-31 00:34:00,
2013-01-30 19:40:00,56.8,47.5,28.47,WSW,257,4.1,8.7,71,0.00,,,0.00,WSDL version 420,2013-01-31 00:40:00,
2013-01-30 19:49:00,56.3,47.4,28.50,SSW,195,4.2,8.5,72,0.00,,,0.00,WSDL version 420,2013-01-31 00:49:00,
2013-01-30 19:56:00,56.1,47.6,28.50,SSW,212,3.6,6.3,73,0.00,,,0.00,WSDL version 420,2013-01-31 00:56:00,
2013-01-30 20:01:00,55.9,47.8,28.47,SW,214,4.0,5.6,74,-99.99,,,-99.99,WSDL version 420,2013-01-31 01:01:00,
2013-01-30 20:06:00,55.9,48.1,28.47,WSW,248,3.7,5.8,75,-99.99,,,-99.99,WSDL version 420,2013-01-31 01:06:00,
2013-01-30 20:12:00,55.9,48.6,28.47,West,267,5.0,10.5,77,-99.99,,,-99.99,WSDL version 420,2013-01-31 01:12:00,
2013-01-30 20:20:00,55.6,48.8,28.50,WSW,257,4.3,7.2,78,-99.99,,,-99.99,WSDL version 420,2013-01-31 01:20:00,
2013-01-30 20:26:00,55.2,49.1,28.50,WSW,248,4.5,6.0,81,0.00,,,0.00,WSDL version 420,2013-01-31 01:26:00,
2013-01-30 20:32:00,54.7,49.6,28.50,SW,233,4.2,6.0,83,0.00,,,0.00,WSDL version 420,2013-01-31 01:32:00,
2013-01-30 20:38:00,55.0,50.7,28.50,SW,234,3.6,6.9,86,0.04,,,0.04,WSDL version 420,2013-01-31 01:38:00,
2013-01-30 20:44:00,54.6,50.0,28.47,SW,228,5.4,8.7,84,0.04,,,0.04,WSDL version 420,2013-01-31 01:44:00,
2013-01-30 20:50:00,54.2,49.6,28.47,SW,228,2.8,8.7,84,-99.99,,,-99.99,WSDL version 420,2013-01-31 01:50:00,
2013-01-30 20:55:00,54.1,50.3,28.47,SW,231,3.4,8.5,87,-99.99,,,-99.99,WSDL version 420,2013-01-31 01:55:00,
2013-01-30 21:01:00,54.3,50.6,28.44,WSW,244,3.3,8.5,88,-99.99,,,-99.99,WSDL version 420,2013-01-31 02:01:00,
2013-01-30 21:08:00,54.2,50.7,28.44,WSW,248,2.8,5.8,88,-99.99,,,-99.99,WSDL version 420,2013-01-31 02:08:00,
2013-01-30 21:15:00,53.8,49.9,28.44,SSW,203,2.6,4.9,87,0.04,,,0.04,WSDL version 420,2013-01-31 02:15:00,
2013-01-30 21:21:00,53.4,49.6,28.44,SW,235,2.5,5.4,88,0.04,,,0.04,WSDL version 420,2013-01-31 02:21:00,
2013-01-30 21:27:00,53.2,50.1,28.44,South,180,2.8,6.5,89,0.04,,,0.04,WSDL version 420,2013-01-31 02:27:00,
2013-01-30 21:32:00,53.1,50.2,28.44,WSW,254,2.9,5.6,90,-99.99,,,-99.99,WSDL version 420,2013-01-31 02:32:00,
2013-01-30 21:38:00,53.1,50.5,28.44,WSW,248,2.7,5.6,91,0.00,,,0.04,WSDL version 420,2013-01-31 02:38:00,
2013-01-30 21:44:00,53.1,51.0,28.44,SW,225,2.0,5.6,93,0.00,,,0.04,WSDL version 420,2013-01-31 02:44:00,
2013-01-30 21:50:00,53.1,51.2,28.44,SW,221,1.8,4.9,93,0.00,,,0.04,WSDL version 420,2013-01-31 02:50:00,
2013-01-30 21:56:00,52.8,51.0,28.44,WSW,240,2.1,3.6,93,-99.99,,,-99.99,WSDL version 420,2013-01-31 02:56:00,
2013-01-30 22:04:00,52.4,50.4,28.41,SW,214,1.9,4.0,92,-99.99,,,-99.99,WSDL version 420,2013-01-31 03:04:00,
2013-01-30 22:10:00,52.2,50.0,28.41,WSW,240,0.7,4.0,92,-99.99,,,-99.99,WSDL version 420,2013-01-31 03:10:00,
2013-01-30 22:16:00,52.2,50.2,28.41,SSW,212,0.0,3.1,93,0.00,,,0.04,WSDL version 420,2013-01-31 03:16:00,
2013-01-30 22:22:00,52.2,50.3,28.41,SW,236,1.5,3.6,93,0.00,,,0.04,WSDL version 420,2013-01-31 03:22:00,
2013-01-30 22:28:00,52.2,50.3,28.41,SW,219,0.3,3.4,93,-99.99,,,-99.99,WSDL version 420,2013-01-31 03:28:00,
2013-01-30 22:35:00,52.1,50.3,28.38,SSW,203,0.0,2.0,93,0.04,,,0.08,WSDL version 420,2013-01-31 03:35:00,
2013-01-30 22:40:00,52.2,50.6,28.38,SW,229,0.4,2.7,94,0.04,,,0.08,WSDL version 420,2013-01-31 03:40:00,
2013-01-30 22:46:00,52.4,50.8,28.41,West,273,0.9,2.7,94,0.04,,,0.08,WSDL version 420,2013-01-31 03:46:00,
2013-01-30 22:52:00,52.7,51.5,28.41,SW,233,2.4,5.6,96,-99.99,,,-99.99,WSDL version 420,2013-01-31 03:52:00,
2013-01-30 22:58:00,53.0,52.1,28.41,SSW,206,1.0,5.6,97,0.04,,,0.08,WSDL version 420,2013-01-31 03:58:00,
2013-01-30 23:04:00,52.9,52.0,28.38,WSW,248,0.3,2.7,97,0.04,,,0.08,WSDL version 420,2013-01-31 04:04:00,
2013-01-30 23:09:00,52.5,51.3,28.38,WSW,243,0.0,1.6,96,0.04,,,0.08,WSDL version 420,2013-01-31 04:09:00,
2013-01-30 23:14:00,52.5,51.3,28.35,WSW,241,0.0,3.1,96,-99.99,,,-99.99,WSDL version 420,2013-01-31 04:14:00,
2013-01-30 23:20:00,52.5,51.3,28.35,West,259,0.6,3.6,96,0.04,,,0.08,WSDL version 420,2013-01-31 04:20:00,
2013-01-30 23:26:00,52.5,51.3,28.35,WSW,255,1.0,3.6,96,0.04,,,0.08,WSDL version 420,2013-01-31 04:26:00,
2013-01-30 23:32:00,52.4,51.2,28.32,SSW,196,0.5,2.9,96,0.04,,,0.08,WSDL version 420,2013-01-31 04:32:00,
2013-01-30 23:40:00,52.3,51.1,28.32,SW,231,0.7,2.9,96,0.00,,,0.08,WSDL version 420,2013-01-31 04:40:00,
2013-01-30 23:46:00,52.3,51.4,28.29,SW,221,0.3,2.7,97,-99.99,,,-99.99,WSDL version 420,2013-01-31 04:46:00,
2013-01-30 23:53:00,52.4,51.5,28.29,SSW,203,0.0,2.7,97,0.00,,,0.08,WSDL version 420,2013-01-31 04:53:00,
2013-01-30 23:59:00,52.3,51.4,28.29,SW,225,0.0,1.3,97,0.00,,,0.00,WSDL version 420,2013-01-31 04:59:00,